createdAt,value
2018-09-27T00:00:31.665Z,1026.83
2018-09-27T00:01:31.641Z,1026.83
2018-09-27T00:02:31.618Z,1026.83
2018-09-27T00:03:31.595Z,1026.87
2018-09-27T00:04:31.574Z,1026.83
2018-09-27T00:05:31.550Z,1026.85
2018-09-27T00:06:31.530Z,1026.89
2018-09-27T00:07:31.507Z,1026.86
2018-09-27T00:08:31.481Z,1026.87
2018-09-27T00:09:31.459Z,1026.83
2018-09-27T00:10:31.434Z,1026.85
2018-09-27T00:11:31.411Z,1026.87
2018-09-27T00:12:31.389Z,1026.85
2018-09-27T00:13:31.370Z,1026.82
2018-09-27T00:14:31.343Z,1026.82
2018-09-27T00:15:31.322Z,1026.78
2018-09-27T00:16:31.297Z,1026.77
2018-09-27T00:17:31.275Z,1026.80
2018-09-27T00:18:31.252Z,1026.83
2018-09-27T00:19:31.274Z,1026.86
2018-09-27T00:20:31.207Z,1026.80
2018-09-27T00:21:31.183Z,1026.79
2018-09-27T00:22:31.160Z,1026.79
2018-09-27T00:23:31.138Z,1026.76
2018-09-27T00:24:31.114Z,1026.77
2018-09-27T00:25:31.092Z,1026.77
2018-09-27T00:26:31.068Z,1026.70
2018-09-27T00:27:31.045Z,1026.75
2018-09-27T00:28:31.022Z,1026.72
2018-09-27T00:29:31.001Z,1026.73
2018-09-27T00:30:30.980Z,1026.76
2018-09-27T00:31:30.954Z,1026.71
2018-09-27T00:32:30.931Z,1026.74
2018-09-27T00:33:30.908Z,1026.78
2018-09-27T00:34:30.885Z,1026.75
2018-09-27T00:35:30.860Z,1026.73
2018-09-27T00:36:30.841Z,1026.72
2018-09-27T00:37:30.815Z,1026.77
2018-09-27T00:38:30.793Z,1026.75
2018-09-27T00:39:30.770Z,1026.80
2018-09-27T00:40:30.748Z,1026.73
2018-09-27T00:41:30.723Z,1026.72
2018-09-27T00:42:30.700Z,1026.68
2018-09-27T00:43:30.677Z,1026.72
2018-09-27T00:44:30.655Z,1026.70
2018-09-27T00:45:30.632Z,1026.62
2018-09-27T00:46:30.608Z,1026.64
2018-09-27T00:47:30.585Z,1026.67
2018-09-27T00:48:30.562Z,1026.68
2018-09-27T00:49:30.539Z,1026.70
2018-09-27T00:50:30.515Z,1026.69
2018-09-27T00:51:30.492Z,1026.72
2018-09-27T00:52:30.470Z,1026.73
2018-09-27T00:53:30.446Z,1026.70
2018-09-27T00:54:30.423Z,1026.67
2018-09-27T00:55:30.400Z,1026.68
2018-09-27T00:56:30.377Z,1026.72
2018-09-27T00:57:30.357Z,1026.76
2018-09-27T00:58:30.329Z,1026.78
2018-09-27T00:59:30.306Z,1026.79
2018-09-27T01:00:30.283Z,1026.79
2018-09-27T01:01:30.260Z,1026.82
2018-09-27T01:02:30.238Z,1026.77
2018-09-27T01:03:30.213Z,1026.78
2018-09-27T01:04:30.190Z,1026.80
2018-09-27T01:05:30.167Z,1026.78
2018-09-27T01:06:30.143Z,1026.78
2018-09-27T01:07:30.121Z,1026.74
2018-09-27T01:08:30.097Z,1026.76
2018-09-27T01:09:30.075Z,1026.72
2018-09-27T01:10:30.051Z,1026.79
2018-09-27T01:11:30.037Z,1026.71
2018-09-27T01:12:30.005Z,1026.69
2018-09-27T01:13:29.983Z,1026.69
2018-09-27T01:14:29.957Z,1026.68
2018-09-27T01:15:29.937Z,1026.71
2018-09-27T01:16:29.911Z,1026.72
2018-09-27T01:17:29.888Z,1026.70
2018-09-27T01:18:29.865Z,1026.71
2018-09-27T01:19:29.842Z,1026.70
2018-09-27T01:20:29.819Z,1026.69
2018-09-27T01:21:29.796Z,1026.71
2018-09-27T01:22:29.771Z,1026.68
2018-09-27T01:23:29.750Z,1026.65
2018-09-27T01:24:29.727Z,1026.70
2018-09-27T01:25:29.703Z,1026.69
2018-09-27T01:26:29.680Z,1026.68
2018-09-27T01:27:29.658Z,1026.69
2018-09-27T01:28:29.634Z,1026.74
2018-09-27T01:29:29.611Z,1026.71
2018-09-27T01:30:29.588Z,1026.74
2018-09-27T01:31:29.563Z,1026.72
2018-09-27T01:32:29.541Z,1026.62
2018-09-27T01:33:29.518Z,1026.68
2018-09-27T01:34:29.495Z,1026.70
2018-09-27T01:35:29.472Z,1026.72
2018-09-27T01:36:29.448Z,1026.68
2018-09-27T01:37:29.425Z,1026.70
2018-09-27T01:38:29.402Z,1026.66
2018-09-27T01:39:29.381Z,1026.69
2018-09-27T01:40:29.357Z,1026.70
2018-09-27T01:41:29.333Z,1026.60
2018-09-27T01:42:29.310Z,1026.64
2018-09-27T01:43:29.291Z,1026.65
2018-09-27T01:44:29.264Z,1026.64
2018-09-27T01:45:29.241Z,1026.65
2018-09-27T01:46:29.217Z,1026.63
2018-09-27T01:47:29.194Z,1026.61
2018-09-27T01:48:29.219Z,1026.64
2018-09-27T01:49:29.148Z,1026.64
2018-09-27T01:50:29.125Z,1026.67
2018-09-27T01:51:29.102Z,1026.64
2018-09-27T01:52:29.080Z,1026.63
2018-09-27T01:53:29.056Z,1026.65
2018-09-27T01:54:29.033Z,1026.65
2018-09-27T01:55:29.009Z,1026.63
2018-09-27T01:56:28.990Z,1026.66
2018-09-27T01:57:28.965Z,1026.60
2018-09-27T01:58:28.939Z,1026.62
2018-09-27T01:59:28.917Z,1026.55
2018-09-27T02:00:28.896Z,1026.62
2018-09-27T02:01:28.872Z,1026.63
2018-09-27T02:02:28.848Z,1026.59
2018-09-27T02:03:28.828Z,1026.61
2018-09-27T02:04:28.803Z,1026.62
2018-09-27T02:05:28.780Z,1026.57
2018-09-27T02:06:28.757Z,1026.62
2018-09-27T02:07:28.733Z,1026.59
2018-09-27T02:08:28.710Z,1026.63
2018-09-27T02:09:28.689Z,1026.60
2018-09-27T02:10:28.664Z,1026.59
2018-09-27T02:11:28.643Z,1026.62
2018-09-27T02:12:28.619Z,1026.59
2018-09-27T02:13:28.596Z,1026.52
2018-09-27T02:14:28.572Z,1026.54
2018-09-27T02:15:28.549Z,1026.51
2018-09-27T02:16:28.527Z,1026.51
2018-09-27T02:17:28.502Z,1026.55
2018-09-27T02:18:28.479Z,1026.50
2018-09-27T02:19:28.456Z,1026.52
2018-09-27T02:20:28.434Z,1026.51
2018-09-27T02:21:28.411Z,1026.53
2018-09-27T02:22:28.387Z,1026.50
2018-09-27T02:23:28.364Z,1026.44
2018-09-27T02:24:28.345Z,1026.46
2018-09-27T02:25:28.320Z,1026.42
2018-09-27T02:26:28.295Z,1026.41
2018-09-27T02:27:28.272Z,1026.42
2018-09-27T02:28:28.250Z,1026.42
2018-09-27T02:29:28.226Z,1026.44
2018-09-27T02:30:28.213Z,1026.42
2018-09-27T02:31:28.189Z,1026.40
2018-09-27T02:32:28.168Z,1026.38
2018-09-27T02:33:28.144Z,1026.37
2018-09-27T02:34:28.122Z,1026.40
2018-09-27T02:35:28.099Z,1026.41
2018-09-27T02:36:28.075Z,1026.45
2018-09-27T02:37:28.056Z,1026.36
2018-09-27T02:38:28.030Z,1026.37
2018-09-27T02:39:28.006Z,1026.33
2018-09-27T02:40:27.983Z,1026.35
2018-09-27T02:41:27.961Z,1026.29
2018-09-27T02:42:27.937Z,1026.37
2018-09-27T02:43:27.915Z,1026.32
2018-09-27T02:44:27.890Z,1026.34
2018-09-27T02:45:27.869Z,1026.35
2018-09-27T02:46:27.843Z,1026.32
2018-09-27T02:47:27.822Z,1026.40
2018-09-27T02:48:27.803Z,1026.31
2018-09-27T02:49:27.775Z,1026.37
2018-09-27T02:50:27.757Z,1026.38
2018-09-27T02:51:27.730Z,1026.39
2018-09-27T02:52:27.707Z,1026.34
2018-09-27T02:53:27.690Z,1026.30
2018-09-27T02:54:27.661Z,1026.25
2018-09-27T02:55:27.637Z,1026.34
2018-09-27T02:56:27.614Z,1026.31
2018-09-27T02:57:27.591Z,1026.36
2018-09-27T02:58:27.567Z,1026.37
2018-09-27T02:59:27.544Z,1026.35
2018-09-27T03:00:27.523Z,1026.33
2018-09-27T03:01:27.501Z,1026.35
2018-09-27T03:02:27.475Z,1026.28
2018-09-27T03:03:27.454Z,1026.27
2018-09-27T03:04:27.430Z,1026.26
2018-09-27T03:05:27.407Z,1026.27
2018-09-27T03:06:27.382Z,1026.22
2018-09-27T03:07:27.359Z,1026.24
2018-09-27T03:08:27.338Z,1026.22
2018-09-27T03:09:27.322Z,1026.22
2018-09-27T03:10:27.291Z,1026.27
2018-09-27T03:11:27.268Z,1026.30
2018-09-27T03:12:27.245Z,1026.27
2018-09-27T03:13:27.221Z,1026.32
2018-09-27T03:14:27.197Z,1026.29
2018-09-27T03:15:27.175Z,1026.31
2018-09-27T03:16:27.153Z,1026.23
2018-09-27T03:17:27.129Z,1026.26
2018-09-27T03:18:27.106Z,1026.32
2018-09-27T03:19:27.086Z,1026.28
2018-09-27T03:20:27.062Z,1026.28
2018-09-27T03:21:27.038Z,1026.24
2018-09-27T03:22:27.013Z,1026.28
2018-09-27T03:23:26.992Z,1026.24
2018-09-27T03:24:26.973Z,1026.25
2018-09-27T03:25:26.947Z,1026.23
2018-09-27T03:26:26.921Z,1026.22
2018-09-27T03:27:26.898Z,1026.18
2018-09-27T03:28:26.883Z,1026.22
2018-09-27T03:29:26.852Z,1026.21
2018-09-27T03:30:26.829Z,1026.19
2018-09-27T03:31:26.808Z,1026.15
2018-09-27T03:32:26.785Z,1026.21
2018-09-27T03:33:26.763Z,1026.21
2018-09-27T03:34:26.743Z,1026.24
2018-09-27T03:35:26.714Z,1026.19
2018-09-27T03:36:26.698Z,1026.16
2018-09-27T03:37:26.669Z,1026.18
2018-09-27T03:38:26.649Z,1026.16
2018-09-27T03:39:26.622Z,1026.20
2018-09-27T03:40:26.607Z,1026.20
2018-09-27T03:41:26.576Z,1026.23
2018-09-27T03:42:26.554Z,1026.16
2018-09-27T03:43:26.531Z,1026.15
2018-09-27T03:44:26.512Z,1026.17
2018-09-27T03:45:26.485Z,1026.23
2018-09-27T03:46:26.465Z,1026.22
2018-09-27T03:47:26.437Z,1026.23
2018-09-27T03:48:26.416Z,1026.22
2018-09-27T03:49:26.393Z,1026.26
2018-09-27T03:50:26.371Z,1026.24
2018-09-27T03:51:26.347Z,1026.26
2018-09-27T03:52:26.325Z,1026.29
2018-09-27T03:53:26.300Z,1026.29
2018-09-27T03:54:26.278Z,1026.26
2018-09-27T03:55:26.254Z,1026.29
2018-09-27T03:56:26.233Z,1026.25
2018-09-27T03:57:26.209Z,1026.28
2018-09-27T03:58:26.186Z,1026.31
2018-09-27T03:59:26.163Z,1026.30
2018-09-27T04:00:26.145Z,1026.28
2018-09-27T04:01:26.117Z,1026.30
2018-09-27T04:02:26.093Z,1026.29
2018-09-27T04:03:26.124Z,1026.29
2018-09-27T04:04:26.048Z,1026.29
2018-09-27T04:05:26.026Z,1026.34
2018-09-27T04:06:26.002Z,1026.32
2018-09-27T04:07:25.979Z,1026.32
2018-09-27T04:08:25.956Z,1026.34
2018-09-27T04:09:25.932Z,1026.29
2018-09-27T04:10:25.909Z,1026.32
2018-09-27T04:11:25.887Z,1026.25
2018-09-27T04:12:25.880Z,1026.24
2018-09-27T04:13:25.843Z,1026.26
2018-09-27T04:14:25.816Z,1026.23
2018-09-27T04:15:25.795Z,1026.25
2018-09-27T04:16:25.778Z,1026.22
2018-09-27T04:17:25.747Z,1026.20
2018-09-27T04:18:25.723Z,1026.18
2018-09-27T04:19:25.701Z,1026.26
2018-09-27T04:20:25.678Z,1026.18
2018-09-27T04:21:25.659Z,1026.23
2018-09-27T04:22:25.631Z,1026.21
2018-09-27T04:23:25.609Z,1026.19
2018-09-27T04:24:25.589Z,1026.16
2018-09-27T04:25:25.562Z,1026.19
2018-09-27T04:26:25.540Z,1026.20
2018-09-27T04:27:25.517Z,1026.22
2018-09-27T04:28:25.495Z,1026.22
2018-09-27T04:29:25.470Z,1026.21
2018-09-27T04:30:25.468Z,1026.19
2018-09-27T04:31:25.426Z,1026.20
2018-09-27T04:32:25.400Z,1026.18
2018-09-27T04:33:25.379Z,1026.19
2018-09-27T04:34:25.355Z,1026.20
2018-09-27T04:35:25.331Z,1026.24
2018-09-27T04:36:25.309Z,1026.23
2018-09-27T04:37:25.297Z,1026.23
2018-09-27T04:38:25.262Z,1026.21
2018-09-27T04:39:25.240Z,1026.22
2018-09-27T04:40:25.217Z,1026.21
2018-09-27T04:41:25.193Z,1026.21
2018-09-27T04:42:25.170Z,1026.24
2018-09-27T04:43:25.148Z,1026.21
2018-09-27T04:44:25.123Z,1026.21
2018-09-27T04:45:25.102Z,1026.24
2018-09-27T04:46:25.077Z,1026.28
2018-09-27T04:47:25.055Z,1026.29
2018-09-27T04:48:25.031Z,1026.29
2018-09-27T04:49:25.008Z,1026.28
2018-09-27T04:50:24.984Z,1026.27
2018-09-27T04:51:24.963Z,1026.26
2018-09-27T04:52:24.939Z,1026.23
2018-09-27T04:53:24.916Z,1026.26
2018-09-27T04:54:24.899Z,1026.30
2018-09-27T04:55:24.869Z,1026.28
2018-09-27T04:56:24.848Z,1026.29
2018-09-27T04:57:24.825Z,1026.31
2018-09-27T04:58:24.801Z,1026.28
2018-09-27T04:59:24.777Z,1026.34
2018-09-27T05:00:24.755Z,1026.29
2018-09-27T05:01:24.732Z,1026.26
2018-09-27T05:02:24.711Z,1026.25
2018-09-27T05:03:24.694Z,1026.25
2018-09-27T05:04:24.661Z,1026.26
2018-09-27T05:05:24.641Z,1026.25
2018-09-27T05:06:24.716Z,1026.21
2018-09-27T05:07:24.593Z,1026.22
2018-09-27T05:08:24.570Z,1026.17
2018-09-27T05:09:24.588Z,1026.20
2018-09-27T05:10:24.523Z,1026.16
2018-09-27T05:11:24.499Z,1026.17
2018-09-27T05:12:24.476Z,1026.21
2018-09-27T05:13:24.454Z,1026.24
2018-09-27T05:14:24.430Z,1026.16
2018-09-27T05:15:24.409Z,1026.22
2018-09-27T05:16:24.385Z,1026.20
2018-09-27T05:17:24.364Z,1026.30
2018-09-27T05:18:24.336Z,1026.23
2018-09-27T05:19:24.314Z,1026.29
2018-09-27T05:20:24.346Z,1026.25
2018-09-27T05:21:24.303Z,1026.24
2018-09-27T05:22:24.244Z,1026.20
2018-09-27T05:23:24.221Z,1026.21
2018-09-27T05:24:24.198Z,1026.14
2018-09-27T05:25:24.174Z,1026.17
2018-09-27T05:26:24.151Z,1026.20
2018-09-27T05:27:24.131Z,1026.21
2018-09-27T05:28:24.105Z,1026.22
2018-09-27T05:29:24.081Z,1026.28
2018-09-27T05:30:24.058Z,1026.30
2018-09-27T05:31:24.036Z,1026.38
2018-09-27T05:32:24.012Z,1026.30
2018-09-27T05:33:24.000Z,1026.38
2018-09-27T05:34:23.965Z,1026.40
2018-09-27T05:35:23.942Z,1026.39
2018-09-27T05:36:23.920Z,1026.41
2018-09-27T05:37:23.898Z,1026.38
2018-09-27T05:38:23.872Z,1026.41
2018-09-27T05:39:23.888Z,1026.38
2018-09-27T05:40:23.827Z,1026.38
2018-09-27T05:41:23.804Z,1026.37
2018-09-27T05:42:23.779Z,1026.38
2018-09-27T05:43:23.757Z,1026.39
2018-09-27T05:44:23.733Z,1026.44
2018-09-27T05:45:23.756Z,1026.43
2018-09-27T05:46:23.687Z,1026.50
2018-09-27T05:47:23.665Z,1026.49
2018-09-27T05:48:23.642Z,1026.47
2018-09-27T05:49:23.618Z,1026.46
2018-09-27T05:50:23.595Z,1026.48
2018-09-27T05:51:23.575Z,1026.47
2018-09-27T05:52:23.551Z,1026.48
2018-09-27T05:53:23.529Z,1026.50
2018-09-27T05:54:23.502Z,1026.51
2018-09-27T05:55:23.478Z,1026.49
2018-09-27T05:56:23.457Z,1026.56
2018-09-27T05:57:23.439Z,1026.56
2018-09-27T05:58:23.410Z,1026.52
2018-09-27T05:59:23.386Z,1026.53
2018-09-27T06:00:23.364Z,1026.54
2018-09-27T06:01:23.342Z,1026.53
2018-09-27T06:02:23.318Z,1026.51
2018-09-27T06:03:23.301Z,1026.45
2018-09-27T06:04:23.271Z,1026.50
2018-09-27T06:05:23.252Z,1026.50
2018-09-27T06:06:23.223Z,1026.50
2018-09-27T06:07:23.201Z,1026.48
2018-09-27T06:08:23.179Z,1026.46
2018-09-27T06:09:23.157Z,1026.51
2018-09-27T06:10:23.132Z,1026.49
2018-09-27T06:11:23.209Z,1026.51
2018-09-27T06:12:23.087Z,1026.51
2018-09-27T06:13:23.068Z,1026.50
2018-09-27T06:14:23.040Z,1026.43
2018-09-27T06:15:23.085Z,1026.42
2018-09-27T06:16:22.996Z,1026.42
2018-09-27T06:17:22.972Z,1026.47
2018-09-27T06:18:22.949Z,1026.42
2018-09-27T06:19:22.946Z,1026.36
2018-09-27T06:20:22.903Z,1026.44
2018-09-27T06:21:22.942Z,1026.45
2018-09-27T06:22:22.856Z,1026.45
2018-09-27T06:23:22.839Z,1026.41
2018-09-27T06:24:22.812Z,1026.43
2018-09-27T06:25:22.792Z,1026.44
2018-09-27T06:26:22.768Z,1026.38
2018-09-27T06:27:22.770Z,1026.42
2018-09-27T06:28:22.721Z,1026.44
2018-09-27T06:29:22.700Z,1026.41
2018-09-27T06:30:22.679Z,1026.44
2018-09-27T06:31:22.661Z,1026.45
2018-09-27T06:32:22.631Z,1026.44
2018-09-27T06:33:22.616Z,1026.45
2018-09-27T06:34:22.590Z,1026.44
2018-09-27T06:35:22.570Z,1026.47
2018-09-27T06:36:22.546Z,1026.43
2018-09-27T06:37:22.525Z,1026.48
2018-09-27T06:38:22.553Z,1026.46
2018-09-27T06:39:22.485Z,1026.56
2018-09-27T06:40:22.462Z,1026.50
2018-09-27T06:41:22.524Z,1026.48
2018-09-27T06:42:22.428Z,1026.50
2018-09-27T06:43:22.404Z,1026.57
2018-09-27T06:44:22.438Z,1026.53
2018-09-27T06:45:22.367Z,1026.56
2018-09-27T06:46:22.343Z,1026.57
2018-09-27T06:47:22.325Z,1026.52
2018-09-27T06:48:22.374Z,1026.55
2018-09-27T06:49:22.287Z,1026.53
2018-09-27T06:50:22.271Z,1026.48
2018-09-27T06:51:22.248Z,1026.55
2018-09-27T06:52:22.231Z,1026.52
2018-09-27T06:53:22.210Z,1026.58
2018-09-27T06:54:22.192Z,1026.58
2018-09-27T06:55:22.313Z,1026.55
2018-09-27T06:56:22.199Z,1026.59
2018-09-27T06:57:22.138Z,1026.57
2018-09-27T06:58:22.115Z,1026.58
2018-09-27T06:59:22.099Z,1026.57
2018-09-27T07:00:22.081Z,1026.57
2018-09-27T07:01:22.063Z,1026.57
2018-09-27T07:02:22.103Z,1026.52
2018-09-27T07:03:22.028Z,1026.56
2018-09-27T07:04:22.005Z,1026.46
2018-09-27T07:05:21.987Z,1026.54
2018-09-27T07:06:21.968Z,1026.54
2018-09-27T07:07:22.060Z,1026.50
2018-09-27T07:08:21.968Z,1026.51
2018-09-27T07:09:21.913Z,1026.48
2018-09-27T07:10:21.895Z,1026.46
2018-09-27T07:11:21.879Z,1026.46
2018-09-27T07:12:22.030Z,1026.48
2018-09-27T07:13:21.839Z,1026.42
2018-09-27T07:14:21.821Z,1026.46
2018-09-27T07:15:21.805Z,1026.44
2018-09-27T07:16:21.787Z,1026.44
2018-09-27T07:17:21.769Z,1026.45
2018-09-27T07:18:21.751Z,1026.42
2018-09-27T07:19:21.733Z,1026.51
2018-09-27T07:20:21.761Z,1026.46
2018-09-27T07:21:21.696Z,1026.46
2018-09-27T07:22:21.676Z,1026.49
2018-09-27T07:23:21.658Z,1026.46
2018-09-27T07:24:21.641Z,1026.48
2018-09-27T07:25:21.629Z,1026.46
2018-09-27T07:26:21.624Z,1026.46
2018-09-27T07:27:21.589Z,1026.44
2018-09-27T07:28:21.573Z,1026.42
2018-09-27T07:29:21.556Z,1026.46
2018-09-27T07:30:21.535Z,1026.42
2018-09-27T07:31:21.517Z,1026.49
2018-09-27T07:32:21.502Z,1026.45
2018-09-27T07:33:21.482Z,1026.46
2018-09-27T07:34:21.466Z,1026.47
2018-09-27T07:35:21.447Z,1026.48
2018-09-27T07:36:21.429Z,1026.50
2018-09-27T07:37:21.411Z,1026.51
2018-09-27T07:38:21.395Z,1026.52
2018-09-27T07:39:21.377Z,1026.58
2018-09-27T07:40:21.361Z,1026.53
2018-09-27T07:41:21.341Z,1026.55
2018-09-27T07:42:21.328Z,1026.56
2018-09-27T07:43:21.306Z,1026.53
2018-09-27T07:44:21.289Z,1026.55
2018-09-27T07:45:21.273Z,1026.59
2018-09-27T07:46:21.255Z,1026.63
2018-09-27T07:47:21.238Z,1026.60
2018-09-27T07:48:21.225Z,1026.58
2018-09-27T07:49:21.203Z,1026.64
2018-09-27T07:50:21.184Z,1026.64
2018-09-27T07:51:21.168Z,1026.63
2018-09-27T07:52:21.149Z,1026.68
2018-09-27T07:53:21.133Z,1026.65
2018-09-27T07:54:21.168Z,1026.70
2018-09-27T07:55:21.097Z,1026.66
2018-09-27T07:56:21.082Z,1026.69
2018-09-27T07:57:21.062Z,1026.63
2018-09-27T07:58:21.045Z,1026.63
2018-09-27T07:59:21.030Z,1026.64
2018-09-27T08:00:21.011Z,1026.64
2018-09-27T08:01:20.994Z,1026.60
2018-09-27T08:02:20.976Z,1026.69
2018-09-27T08:03:20.959Z,1026.67
2018-09-27T08:04:21.110Z,1026.64
2018-09-27T08:05:20.924Z,1026.67
2018-09-27T08:06:20.911Z,1026.71
2018-09-27T08:07:20.888Z,1026.74
2018-09-27T08:08:20.873Z,1026.73
2018-09-27T08:09:20.861Z,1026.73
2018-09-27T08:10:20.839Z,1026.75
2018-09-27T08:11:20.950Z,1026.77
2018-09-27T08:12:20.805Z,1026.76
2018-09-27T08:13:20.788Z,1026.73
2018-09-27T08:14:20.771Z,1026.74
2018-09-27T08:15:20.755Z,1026.75
2018-09-27T08:16:20.739Z,1026.71
2018-09-27T08:17:20.770Z,1026.72
2018-09-27T08:18:20.704Z,1026.76
2018-09-27T08:19:20.689Z,1026.77
2018-09-27T08:20:20.728Z,1026.73
2018-09-27T08:21:20.684Z,1026.72
2018-09-27T08:22:20.638Z,1026.73
2018-09-27T08:23:20.622Z,1026.77
2018-09-27T08:24:20.606Z,1026.73
2018-09-27T08:25:20.590Z,1026.75
2018-09-27T08:26:20.571Z,1026.82
2018-09-27T08:27:20.559Z,1026.79
2018-09-27T08:28:20.540Z,1026.82
2018-09-27T08:29:20.530Z,1026.85
2018-09-27T08:30:20.556Z,1026.85
2018-09-27T08:31:20.493Z,1026.90
2018-09-27T08:32:20.477Z,1026.90
2018-09-27T08:33:20.462Z,1026.90
2018-09-27T08:34:20.445Z,1026.85
2018-09-27T08:35:20.434Z,1026.87
2018-09-27T08:36:20.416Z,1026.89
2018-09-27T08:37:20.399Z,1026.93
2018-09-27T08:38:20.404Z,1026.88
2018-09-27T08:39:20.369Z,1026.93
2018-09-27T08:40:20.353Z,1026.90
2018-09-27T08:41:20.337Z,1026.91
2018-09-27T08:42:20.321Z,1026.89
2018-09-27T08:43:20.305Z,1026.86
2018-09-27T08:44:20.296Z,1026.85
2018-09-27T08:45:20.467Z,1026.83
2018-09-27T08:46:20.257Z,1026.82
2018-09-27T08:47:20.242Z,1026.85
2018-09-27T08:48:20.225Z,1026.78
2018-09-27T08:49:20.210Z,1026.80
2018-09-27T08:50:20.192Z,1026.78
2018-09-27T08:51:20.174Z,1026.77
2018-09-27T08:52:20.158Z,1026.82
2018-09-27T08:53:20.142Z,1026.74
2018-09-27T08:54:20.125Z,1026.76
2018-09-27T08:55:20.150Z,1026.72
2018-09-27T08:56:20.138Z,1026.70
2018-09-27T08:57:20.074Z,1026.69
2018-09-27T08:58:20.057Z,1026.71
2018-09-27T08:59:20.040Z,1026.71
2018-09-27T09:00:20.022Z,1026.69
2018-09-27T09:01:20.006Z,1026.70
2018-09-27T09:02:19.988Z,1026.64
2018-09-27T09:03:20.011Z,1026.64
2018-09-27T09:04:19.953Z,1026.63
2018-09-27T09:05:19.939Z,1026.61
2018-09-27T09:06:19.917Z,1026.58
2018-09-27T09:07:19.901Z,1026.58
2018-09-27T09:08:19.883Z,1026.54
2018-09-27T09:09:19.866Z,1026.58
2018-09-27T09:10:19.850Z,1026.56
2018-09-27T09:11:19.832Z,1026.55
2018-09-27T09:12:19.818Z,1026.56
2018-09-27T09:13:19.803Z,1026.58
2018-09-27T09:14:19.781Z,1026.59
2018-09-27T09:15:19.766Z,1026.57
2018-09-27T09:16:19.748Z,1026.55
2018-09-27T09:17:19.734Z,1026.54
2018-09-27T09:18:19.714Z,1026.51
2018-09-27T09:19:19.697Z,1026.51
2018-09-27T09:20:19.678Z,1026.53
2018-09-27T09:21:19.665Z,1026.56
2018-09-27T09:22:19.644Z,1026.52
2018-09-27T09:23:19.629Z,1026.48
2018-09-27T09:24:19.613Z,1026.48
2018-09-27T09:25:19.593Z,1026.41
2018-09-27T09:26:19.577Z,1026.41
2018-09-27T09:27:19.558Z,1026.37
2018-09-27T09:28:19.540Z,1026.38
2018-09-27T09:29:19.545Z,1026.41
2018-09-27T09:30:19.507Z,1026.43
2018-09-27T09:31:19.491Z,1026.36
2018-09-27T09:32:19.475Z,1026.43
2018-09-27T09:33:19.456Z,1026.41
2018-09-27T09:34:19.437Z,1026.36
2018-09-27T09:35:19.422Z,1026.35
2018-09-27T09:36:19.405Z,1026.33
2018-09-27T09:37:19.387Z,1026.35
2018-09-27T09:38:19.373Z,1026.35
2018-09-27T09:39:19.354Z,1026.32
2018-09-27T09:40:19.338Z,1026.30
2018-09-27T09:41:19.324Z,1026.27
2018-09-27T09:42:19.305Z,1026.27
2018-09-27T09:43:19.291Z,1026.24
2018-09-27T09:44:19.277Z,1026.25
2018-09-27T09:45:19.260Z,1026.19
2018-09-27T09:46:19.244Z,1026.23
2018-09-27T09:47:19.227Z,1026.22
2018-09-27T09:48:19.213Z,1026.17
2018-09-27T09:49:19.199Z,1026.16
2018-09-27T09:50:19.183Z,1026.16
2018-09-27T09:51:19.170Z,1026.16
2018-09-27T09:52:19.151Z,1026.09
2018-09-27T09:53:19.136Z,1026.13
2018-09-27T09:54:19.122Z,1026.11
2018-09-27T09:55:19.105Z,1026.09
2018-09-27T09:56:19.094Z,1026.02
2018-09-27T09:57:19.082Z,1026.03
2018-09-27T09:58:19.061Z,1026.03
2018-09-27T09:59:19.046Z,1025.97
2018-09-27T10:00:19.032Z,1026.03
2018-09-27T10:01:19.019Z,1026.03
2018-09-27T10:02:19.018Z,1025.95
2018-09-27T10:03:18.984Z,1025.95
2018-09-27T10:04:18.972Z,1025.92
2018-09-27T10:05:18.957Z,1025.94
2018-09-27T10:06:18.940Z,1025.95
2018-09-27T10:07:18.930Z,1025.95
2018-09-27T10:08:18.911Z,1025.95
2018-09-27T10:09:18.902Z,1025.90
2018-09-27T10:10:18.881Z,1025.89
2018-09-27T10:11:18.867Z,1025.90
2018-09-27T10:12:18.855Z,1025.86
2018-09-27T10:13:18.845Z,1025.89
2018-09-27T10:14:18.823Z,1025.82
2018-09-27T10:15:18.814Z,1025.79
2018-09-27T10:16:18.800Z,1025.87
2018-09-27T10:17:18.779Z,1025.84
2018-09-27T10:18:18.766Z,1025.86
2018-09-27T10:19:18.757Z,1025.79
2018-09-27T10:20:18.737Z,1025.82
2018-09-27T10:21:18.725Z,1025.77
2018-09-27T10:22:18.711Z,1025.71
2018-09-27T10:23:18.692Z,1025.72
2018-09-27T10:24:18.679Z,1025.72
2018-09-27T10:25:18.664Z,1025.74
2018-09-27T10:26:18.649Z,1025.70
2018-09-27T10:27:18.684Z,1025.70
2018-09-27T10:28:18.620Z,1025.69
2018-09-27T10:29:18.604Z,1025.72
2018-09-27T10:30:18.594Z,1025.65
2018-09-27T10:31:18.577Z,1025.68
2018-09-27T10:32:18.563Z,1025.77
2018-09-27T10:33:18.548Z,1025.69
2018-09-27T10:34:18.609Z,1025.73
2018-09-27T10:35:18.523Z,1025.68
2018-09-27T10:36:18.503Z,1025.68
2018-09-27T10:37:18.486Z,1025.71
2018-09-27T10:38:18.476Z,1025.72
2018-09-27T10:39:18.460Z,1025.64
2018-09-27T10:40:18.447Z,1025.69
2018-09-27T10:41:18.427Z,1025.64
2018-09-27T10:42:18.411Z,1025.66
2018-09-27T10:43:18.397Z,1025.58
2018-09-27T10:44:18.381Z,1025.60
2018-09-27T10:45:18.370Z,1025.60
2018-09-27T10:46:18.349Z,1025.59
2018-09-27T10:47:18.335Z,1025.58
2018-09-27T10:48:18.320Z,1025.59
2018-09-27T10:49:18.305Z,1025.57
2018-09-27T10:50:18.290Z,1025.54
2018-09-27T10:51:18.340Z,1025.57
2018-09-27T10:52:18.259Z,1025.54
2018-09-27T10:53:18.242Z,1025.51
2018-09-27T10:54:18.226Z,1025.47
2018-09-27T10:55:18.210Z,1025.47
2018-09-27T10:56:18.195Z,1025.43
2018-09-27T10:57:18.280Z,1025.45
2018-09-27T10:58:18.163Z,1025.41
2018-09-27T10:59:18.146Z,1025.41
2018-09-27T11:00:18.136Z,1025.30
2018-09-27T11:01:18.118Z,1025.38
2018-09-27T11:02:18.101Z,1025.37
2018-09-27T11:03:18.086Z,1025.35
2018-09-27T11:04:18.074Z,1025.36
2018-09-27T11:05:18.054Z,1025.43
2018-09-27T11:06:18.038Z,1025.36
2018-09-27T11:07:18.027Z,1025.19
2018-09-27T11:08:18.008Z,1025.27
2018-09-27T11:09:17.993Z,1025.19
2018-09-27T11:10:17.975Z,1025.20
2018-09-27T11:11:17.988Z,1025.20
2018-09-27T11:12:17.946Z,1025.18
2018-09-27T11:13:17.931Z,1025.15
2018-09-27T11:14:17.912Z,1025.21
2018-09-27T11:15:17.902Z,1025.13
2018-09-27T11:16:17.882Z,1025.14
2018-09-27T11:17:17.866Z,1025.12
2018-09-27T11:18:17.851Z,1025.08
2018-09-27T11:19:17.836Z,1025.07
2018-09-27T11:20:17.820Z,1025.08
2018-09-27T11:21:17.807Z,1025.03
2018-09-27T11:22:17.789Z,1025.03
2018-09-27T11:23:17.775Z,1025.07
2018-09-27T11:24:17.761Z,1025.05
2018-09-27T11:25:17.745Z,1024.99
2018-09-27T11:26:17.733Z,1025.01
2018-09-27T11:27:17.713Z,1025.01
2018-09-27T11:28:17.699Z,1024.94
2018-09-27T11:29:17.684Z,1024.98
2018-09-27T11:30:17.666Z,1025.00
2018-09-27T11:31:17.652Z,1024.94
2018-09-27T11:32:17.637Z,1024.88
2018-09-27T11:33:17.622Z,1024.84
2018-09-27T11:34:17.606Z,1024.84
2018-09-27T11:35:17.593Z,1024.75
2018-09-27T11:36:17.616Z,1024.84
2018-09-27T11:37:17.559Z,1024.87
2018-09-27T11:38:17.542Z,1024.85
2018-09-27T11:39:17.531Z,1024.87
2018-09-27T11:40:17.512Z,1024.78
2018-09-27T11:41:17.496Z,1024.78
2018-09-27T11:42:17.521Z,1024.77
2018-09-27T11:43:17.465Z,1024.79
2018-09-27T11:44:17.450Z,1024.77
2018-09-27T11:45:17.434Z,1024.72
2018-09-27T11:46:17.419Z,1024.66
2018-09-27T11:47:17.403Z,1024.74
2018-09-27T11:48:17.387Z,1024.71
2018-09-27T11:49:17.529Z,1024.71
2018-09-27T11:50:17.427Z,1024.59
2018-09-27T11:51:17.342Z,1024.57
2018-09-27T11:52:17.326Z,1024.59
2018-09-27T11:53:17.309Z,1024.59
2018-09-27T11:54:17.295Z,1024.51
2018-09-27T11:55:17.278Z,1024.57
2018-09-27T11:56:17.262Z,1024.56
2018-09-27T11:57:17.246Z,1024.50
2018-09-27T11:58:17.231Z,1024.51
2018-09-27T11:59:17.215Z,1024.47
2018-09-27T12:00:17.198Z,1024.48
2018-09-27T12:01:17.183Z,1024.40
2018-09-27T12:02:17.167Z,1024.44
2018-09-27T12:03:17.152Z,1024.38
2018-09-27T12:04:17.140Z,1024.38
2018-09-27T12:05:17.121Z,1024.38